Time;durP1;ratioP1;P1;durP2;ratioP2;P2;SDS_P1;SDS_P2;PMS_P1;PMS_P2;Temp;Humidity;BMP_temperature;BMP_pressure;BME280_temperature;BME280_humidity;BME280_pressure;Samples;Min_cycle;Max_cycle;Signal;HPM_P1;HPM_P2
2021/09/14 00:01:24;;;;;;;6.78;5.38;;;15.10;99.90;;;;;;2631035;54;20149;-78
2021/09/14 00:03:52;;;;;;;6.97;5.80;;;15.20;99.90;;;;;;2630888;47;20142;-76
2021/09/14 00:06:21;;;;;;;4.93;4.35;;;15.20;99.90;;;;;;2630976;54;20789;-78
2021/09/14 00:08:50;;;;;;;7.25;6.00;;;15.30;99.90;;;;;;2631005;47;20212;-77
2021/09/14 00:11:21;;;;;;;5.20;4.70;;;15.30;99.90;;;;;;2631004;54;20156;-77
2021/09/14 00:13:50;;;;;;;5.38;4.90;;;15.40;99.90;;;;;;2630868;47;20130;-78
2021/09/14 00:16:19;;;;;;;6.90;5.88;;;15.40;99.90;;;;;;2630866;47;20223;-77
2021/09/14 00:18:48;;;;;;;5.60;5.07;;;15.40;99.90;;;;;;2631033;47;20931;-77
2021/09/14 00:21:16;;;;;;;7.32;5.28;;;15.30;99.90;;;;;;2633203;39;20824;-77
2021/09/14 00:23:45;;;;;;;8.77;6.28;;;15.30;99.90;;;;;;2630575;47;20146;-78
2021/09/14 00:26:14;;;;;;;7.18;5.20;;;15.20;99.90;;;;;;2630843;47;21058;-78
2021/09/14 00:28:45;;;;;;;5.18;4.45;;;15.20;99.90;;;;;;2634410;39;20781;-78
2021/09/14 00:31:14;;;;;;;7.00;4.85;;;15.10;99.90;;;;;;2630872;47;20152;-78
2021/09/14 00:33:43;;;;;;;7.85;5.50;;;15.20;99.90;;;;;;2630494;47;20189;-77
2021/09/14 00:36:12;;;;;;;5.82;4.97;;;15.30;99.90;;;;;;2630827;54;20207;-78
2021/09/14 00:38:41;;;;;;;5.38;4.80;;;15.10;99.90;;;;;;2634639;39;20842;-77
2021/09/14 00:41:10;;;;;;;6.03;5.05;;;14.90;99.90;;;;;;2630662;47;20142;-78
2021/09/14 00:43:39;;;;;;;5.07;4.55;;;14.60;99.90;;;;;;2630593;54;20146;-78
2021/09/14 00:46:10;;;;;;;5.25;4.75;;;14.40;99.90;;;;;;2630600;47;20148;-77
2021/09/14 00:48:39;;;;;;;7.40;5.60;;;14.30;99.90;;;;;;2630549;54;20955;-77
2021/09/14 00:51:08;;;;;;;4.85;4.40;;;14.40;99.90;;;;;;2630807;47;20255;-76
2021/09/14 00:53:37;;;;;;;5.07;4.68;;;14.60;99.90;;;;;;2630457;47;20145;-77
2021/09/14 00:56:07;;;;;;;5.13;4.38;;;14.80;99.90;;;;;;2630698;47;20189;-78
2021/09/14 00:58:35;;;;;;;4.65;4.13;;;14.80;99.90;;;;;;2630580;47;20141;-77
2021/09/14 01:01:04;;;;;;;4.65;3.75;;;14.70;99.90;;;;;;2637128;39;20826;-76
2021/09/14 01:03:35;;;;;;;4.63;3.90;;;14.70;99.90;;;;;;2630625;47;20141;-78
2021/09/14 01:06:04;;;;;;;5.60;4.15;;;14.70;99.90;;;;;;2630553;47;20168;-77
2021/09/14 01:08:34;;;;;;;4.22;3.85;;;14.70;99.90;;;;;;2630531;47;20126;-77
2021/09/14 01:11:04;;;;;;;4.68;4.28;;;14.50;99.90;;;;;;2630687;47;20136;-77
2021/09/14 01:13:33;;;;;;;6.40;4.30;;;14.50;99.90;;;;;;2630398;47;20149;-77
2021/09/14 01:16:13;;;;;;;4.78;4.28;;;14.40;99.90;;;;;;2630526;47;20181;-78
2021/09/14 01:18:47;;;;;;;5.07;4.57;;;14.40;99.90;;;;;;2630514;47;20129;-77
2021/09/14 01:21:22;;;;;;;5.57;5.07;;;14.30;99.90;;;;;;2630789;47;20177;-78
2021/09/14 01:23:55;;;;;;;5.53;5.03;;;14.20;99.90;;;;;;2630378;47;20910;-78
2021/09/14 01:26:24;;;;;;;6.50;5.65;;;14.30;99.90;;;;;;2630665;47;20157;-77
2021/09/14 01:28:54;;;;;;;7.35;6.13;;;14.40;99.90;;;;;;2636567;39;20746;-76
2021/09/14 01:31:24;;;;;;;7.13;5.55;;;14.40;99.90;;;;;;2630667;47;20161;-78
2021/09/14 01:33:54;;;;;;;6.68;5.82;;;14.40;99.90;;;;;;2631622;46;20153;-78
2021/09/14 01:36:26;;;;;;;6.80;5.57;;;14.30;99.90;;;;;;2630465;47;20153;-77
2021/09/14 01:38:59;;;;;;;7.85;5.35;;;14.30;99.90;;;;;;2630507;54;20154;-77
2021/09/14 01:41:27;;;;;;;5.50;5.00;;;14.40;99.90;;;;;;2630461;47;20168;-77
2021/09/14 01:43:57;;;;;;;5.85;5.22;;;14.20;99.90;;;;;;2630290;54;20161;-78
2021/09/14 01:46:25;;;;;;;5.38;4.88;;;14.00;99.90;;;;;;2630347;54;20184;-77
2021/09/14 01:48:54;;;;;;;6.65;5.95;;;14.10;99.90;;;;;;2630379;47;20137;-77
2021/09/14 01:51:24;;;;;;;6.20;5.60;;;14.20;99.90;;;;;;2630372;54;20129;-77
2021/09/14 01:53:55;;;;;;;6.28;5.68;;;14.30;99.90;;;;;;2630269;47;20146;-77
2021/09/14 01:56:27;;;;;;;7.10;6.40;;;14.30;99.90;;;;;;2630594;47;20189;-77
2021/09/14 01:58:56;;;;;;;6.40;5.13;;;14.40;99.90;;;;;;2630369;47;20145;-77
2021/09/14 02:01:28;;;;;;;6.85;6.15;;;14.60;99.90;;;;;;2631213;54;20836;-78
2021/09/14 02:04:02;;;;;;;7.47;6.40;;;14.70;99.90;;;;;;2631083;54;21057;-77
2021/09/14 02:06:54;;;;;;;6.55;5.88;;;14.50;99.90;;;;;;2634121;39;20912;-79
2021/09/14 02:39:48;;;;;;;4.53;4.10;;;13.70;99.90;;;;;;2631285;47;20130;-77
2021/09/14 02:42:40;;;;;;;5.15;4.03;;;13.80;99.90;;;;;;2631124;47;20129;-77
2021/09/14 02:58:47;;;;;;;4.95;4.35;;;12.80;99.90;;;;;;2631147;46;20184;-77
2021/09/14 03:01:22;;;;;;;5.82;5.00;;;12.50;99.90;;;;;;2630987;47;20168;-78
2021/09/14 03:03:54;;;;;;;5.30;4.82;;;12.30;99.90;;;;;;2630924;47;20141;-78
2021/09/14 03:06:24;;;;;;;6.20;5.60;;;12.50;99.90;;;;;;2631090;47;20157;-78
2021/09/14 03:08:54;;;;;;;7.68;5.90;;;12.70;99.90;;;;;;2631042;46;20150;-77
2021/09/14 03:11:27;;;;;;;5.68;4.38;;;12.90;99.90;;;;;;2630893;47;20126;-77
2021/09/14 03:14:02;;;;;;;8.10;5.05;;;13.00;99.90;;;;;;2630805;47;20148;-78
2021/09/14 03:16:36;;;;;;;5.72;5.18;;;13.30;99.90;;;;;;2630970;54;20138;-76
2021/09/14 03:19:06;;;;;;;5.60;5.07;;;13.00;99.90;;;;;;2631072;47;20198;-77
2021/09/14 03:21:35;;;;;;;6.18;5.57;;;12.80;99.90;;;;;;2630977;47;20895;-77
2021/09/14 03:24:07;;;;;;;5.70;5.03;;;12.40;99.90;;;;;;2630887;47;20153;-78
2021/09/14 03:26:36;;;;;;;6.03;5.43;;;12.50;99.90;;;;;;2631000;47;20954;-77
2021/09/14 03:29:05;;;;;;;5.63;5.13;;;12.60;99.90;;;;;;2630853;47;20184;-78
2021/09/14 03:31:44;;;;;;;5.68;5.10;;;12.50;99.90;;;;;;2630939;47;20137;-78
2021/09/14 03:34:13;;;;;;;6.00;5.45;;;12.50;99.90;;;;;;2631021;47;20160;-77
2021/09/14 03:36:43;;;;;;;4.97;4.57;;;12.50;99.90;;;;;;2631170;54;20180;-78
2021/09/14 03:39:11;;;;;;;5.18;4.65;;;12.40;99.90;;;;;;2630933;47;20169;-78
2021/09/14 03:41:41;;;;;;;5.18;4.78;;;12.40;99.90;;;;;;2630911;54;20138;-78
2021/09/14 03:44:10;;;;;;;6.05;5.55;;;12.60;99.90;;;;;;2630795;46;20927;-78
2021/09/14 03:46:38;;;;;;;6.47;5.85;;;12.90;99.90;;;;;;2630837;47;20153;-77
2021/09/14 03:49:10;;;;;;;5.90;5.40;;;12.90;99.90;;;;;;2630945;47;20134;-78
2021/09/14 03:51:42;;;;;;;5.70;4.63;;;13.00;99.90;;;;;;2630853;47;20149;-78
2021/09/14 03:54:12;;;;;;;5.47;5.00;;;13.00;99.90;;;;;;2630708;47;20134;-78
2021/09/14 03:56:40;;;;;;;5.78;4.80;;;13.00;99.90;;;;;;2630835;46;20209;-77
2021/09/14 03:59:09;;;;;;;4.95;4.55;;;12.70;99.90;;;;;;2637370;39;20772;-77
2021/09/14 04:01:47;;;;;;;4.25;3.95;;;12.40;99.90;;;;;;2630847;47;20136;-77
2021/09/14 04:04:22;;;;;;;4.40;4.00;;;12.20;99.90;;;;;;2630597;47;20160;-78
2021/09/14 04:07:10;;;;;;;4.85;4.45;;;12.20;99.90;;;;;;2630853;47;20205;-78
2021/09/14 04:09:41;;;;;;;5.80;5.30;;;12.50;99.90;;;;;;2630839;54;20156;-78
2021/09/14 04:12:15;;;;;;;5.35;4.85;;;12.50;99.90;;;;;;2630790;47;20172;-78
2021/09/14 04:14:46;;;;;;;7.75;6.05;;;12.40;99.90;;;;;;2630621;47;20221;-78
2021/09/14 04:17:16;;;;;;;5.50;5.00;;;12.30;99.90;;;;;;2635065;46;20171;-78
2021/09/14 04:19:47;;;;;;;5.90;5.35;;;12.10;99.90;;;;;;2630965;46;20130;-78
2021/09/14 04:22:16;;;;;;;5.47;5.00;;;12.10;99.90;;;;;;2630646;47;20205;-78
2021/09/14 04:24:45;;;;;;;5.55;5.03;;;12.00;99.90;;;;;;2631009;39;20670;-77
2021/09/14 04:27:16;;;;;;;5.72;5.15;;;11.90;99.90;;;;;;2630857;54;20133;-78
2021/09/14 04:29:45;;;;;;;6.88;6.18;;;11.90;99.90;;;;;;2630764;54;20149;-78
2021/09/14 04:32:13;;;;;;;8.02;5.15;;;11.90;99.90;;;;;;2630669;54;20129;-78
2021/09/14 04:34:42;;;;;;;7.68;4.78;;;11.80;99.90;;;;;;2630548;47;20207;-78
2021/09/14 04:37:15;;;;;;;5.75;5.25;;;11.80;99.90;;;;;;2630737;54;20916;-77
2021/09/14 04:39:43;;;;;;;6.45;5.40;;;11.70;99.90;;;;;;2630639;47;20185;-77
2021/09/14 04:42:15;;;;;;;5.32;4.85;;;11.80;99.90;;;;;;2630824;47;20134;-77
2021/09/14 04:44:43;;;;;;;7.78;6.07;;;11.80;99.90;;;;;;2630451;47;20183;-78
2021/09/14 04:47:13;;;;;;;6.72;6.07;;;11.80;99.90;;;;;;2630782;47;20205;-77
2021/09/14 04:49:42;;;;;;;6.10;5.47;;;11.70;99.90;;;;;;2647031;31;20813;-78
2021/09/14 04:52:13;;;;;;;6.80;6.10;;;11.80;99.90;;;;;;2637060;39;20658;-77
2021/09/14 04:54:42;;;;;;;7.03;6.32;;;11.80;99.90;;;;;;2630576;46;20229;-77
2021/09/14 04:57:11;;;;;;;7.85;6.13;;;12.00;99.90;;;;;;2630633;47;20139;-78
2021/09/14 04:59:40;;;;;;;7.63;6.78;;;11.90;99.90;;;;;;2630642;47;20134;-77
2021/09/14 05:02:10;;;;;;;7.22;6.55;;;12.10;99.90;;;;;;2630700;54;20152;-77
2021/09/14 05:04:38;;;;;;;9.27;6.68;;;12.10;99.90;;;;;;2629451;47;20216;-75
2021/09/14 05:07:08;;;;;;;10.02;7.60;;;12.10;99.90;;;;;;2618756;54;20163;-76
2021/09/14 05:09:39;;;;;;;66.00;9.43;;;12.10;99.90;;;;;;2618858;47;20687;-75
2021/09/14 05:12:09;;;;;;;6.68;6.03;;;12.30;99.90;;;;;;2619708;39;20562;-76
2021/09/14 05:14:38;;;;;;;9.77;8.68;;;12.10;99.90;;;;;;2618854;47;20133;-75
2021/09/14 05:17:21;;;;;;;30.77;7.65;;;12.10;99.90;;;;;;2619207;51;20137;-74
2021/09/14 05:19:56;;;;;;;6.57;5.97;;;12.30;99.90;;;;;;2619225;54;20687;-74
2021/09/14 05:22:30;;;;;;;31.35;8.10;;;12.10;99.90;;;;;;2618739;47;20654;-74
2021/09/14 05:25:02;;;;;;;7.45;6.75;;;12.20;99.90;;;;;;2618668;47;20186;-74
2021/09/14 05:27:31;;;;;;;8.50;7.68;;;12.30;99.90;;;;;;2618605;54;20726;-75
2021/09/14 05:30:00;;;;;;;13.75;10.90;;;12.50;99.90;;;;;;2619297;47;20157;-74
2021/09/14 05:32:29;;;;;;;12.45;10.55;;;12.60;99.90;;;;;;2619596;50;20153;-74
2021/09/14 05:34:58;;;;;;;14.70;13.18;;;12.70;99.90;;;;;;2619729;54;20180;-74
2021/09/14 05:37:28;;;;;;;11.10;8.15;;;12.70;99.90;;;;;;2620631;47;20153;-75
2021/09/14 05:39:56;;;;;;;8.48;7.05;;;12.70;99.90;;;;;;2619766;47;20177;-76
2021/09/14 05:42:28;;;;;;;13.20;10.35;;;12.70;99.90;;;;;;2619489;54;20153;-74
2021/09/14 05:44:57;;;;;;;20.20;16.42;;;12.50;99.90;;;;;;2625604;54;20816;-77
2021/09/14 05:47:26;;;;;;;7.35;6.65;;;12.40;99.90;;;;;;2627929;54;20145;-76
2021/09/14 05:49:58;;;;;;;7.70;6.90;;;12.20;99.90;;;;;;2627040;39;20570;-75
2021/09/14 05:52:27;;;;;;;8.15;7.32;;;12.40;99.90;;;;;;2622880;47;20156;-75
2021/09/14 05:54:56;;;;;;;15.82;14.18;;;12.70;99.90;;;;;;2619919;54;20260;-76
2021/09/14 05:57:28;;;;;;;7.75;7.05;;;12.90;99.90;;;;;;2619415;54;20148;-74
2021/09/14 05:59:57;;;;;;;7.22;5.95;;;12.80;99.90;;;;;;2620240;54;20149;-75
2021/09/14 06:02:26;;;;;;;11.50;7.22;;;12.60;99.90;;;;;;2619883;54;20149;-75
2021/09/14 06:04:59;;;;;;;6.97;6.38;;;12.70;99.90;;;;;;2619263;47;20172;-74
2021/09/14 06:07:29;;;;;;;7.60;6.90;;;12.80;99.90;;;;;;2619660;54;20153;-74
2021/09/14 06:09:58;;;;;;;22.13;7.60;;;12.80;99.90;;;;;;2620366;47;20164;-76
2021/09/14 06:12:29;;;;;;;28.38;7.93;;;12.80;99.90;;;;;;2620228;54;20149;-76
2021/09/14 06:14:58;;;;;;;81.68;10.02;;;12.70;99.90;;;;;;2620704;54;20264;-75
2021/09/14 06:17:28;;;;;;;46.47;8.10;;;12.70;99.90;;;;;;2619878;54;20153;-74
2021/09/14 06:19:57;;;;;;;96.82;11.52;;;13.00;99.90;;;;;;2618380;54;20164;-75
2021/09/14 06:22:26;;;;;;;37.22;8.98;;;13.00;99.90;;;;;;2618731;47;20709;-75
2021/09/14 06:24:56;;;;;;;11.85;8.38;;;12.90;99.90;;;;;;2619984;54;20169;-74
2021/09/14 06:27:24;;;;;;;12.82;8.57;;;12.70;99.90;;;;;;2619625;54;20285;-75
2021/09/14 06:29:56;;;;;;;11.30;9.60;;;12.70;99.90;;;;;;2619542;47;20169;-75
2021/09/14 06:32:25;;;;;;;10.57;9.55;;;12.70;99.90;;;;;;2619608;54;20252;-75
2021/09/14 06:35:03;;;;;;;8.50;7.63;;;12.90;99.90;;;;;;2620203;39;20559;-75
2021/09/14 06:37:42;;;;;;;7.65;6.88;;;13.10;99.90;;;;;;2619478;47;20160;-75
2021/09/14 06:40:12;;;;;;;6.97;6.38;;;13.30;99.90;;;;;;2620433;50;20149;-73
2021/09/14 06:42:41;;;;;;;7.60;6.90;;;13.40;99.90;;;;;;2620243;54;20152;-76
2021/09/14 06:45:31;;;;;;;7.07;6.47;;;13.60;99.90;;;;;;2621139;39;20571;-76
2021/09/14 06:48:08;;;;;;;9.55;6.75;;;13.60;99.90;;;;;;2619842;54;20250;-76
2021/09/14 06:50:37;;;;;;;11.82;8.43;;;13.80;99.90;;;;;;2620369;54;20697;-75
2021/09/14 06:53:06;;;;;;;11.18;7.75;;;14.00;99.90;;;;;;2620867;39;20659;-76
2021/09/14 06:55:34;;;;;;;8.10;7.40;;;13.90;99.90;;;;;;2620804;39;20593;-74
2021/09/14 06:58:03;;;;;;;33.28;8.43;;;14.00;99.90;;;;;;2619745;54;20158;-75
2021/09/14 07:00:35;;;;;;;11.05;8.93;;;14.00;99.90;;;;;;2619826;54;20168;-74
2021/09/14 07:03:03;;;;;;;13.27;7.82;;;14.20;99.90;;;;;;2620343;49;20145;-75
2021/09/14 07:05:32;;;;;;;9.15;8.35;;;14.20;99.90;;;;;;2618748;54;20176;-75
2021/09/14 07:08:01;;;;;;;29.67;9.85;;;14.00;99.90;;;;;;2619648;54;20221;-76
2021/09/14 07:10:30;;;;;;;11.80;8.73;;;14.00;99.90;;;;;;2620194;54;20153;-74
2021/09/14 07:12:59;;;;;;;9.65;8.52;;;13.90;99.90;;;;;;2619892;54;20161;-76
2021/09/14 07:15:27;;;;;;;10.00;9.00;;;14.00;99.90;;;;;;2622342;54;20176;-75
2021/09/14 07:17:59;;;;;;;12.18;10.93;;;14.10;99.90;;;;;;2626370;47;20149;-75
2021/09/14 07:20:28;;;;;;;43.95;12.95;;;14.30;99.90;;;;;;2621415;46;20161;-75
2021/09/14 07:22:56;;;;;;;25.65;12.65;;;14.60;99.90;;;;;;2620573;54;20153;-75
2021/09/14 07:25:25;;;;;;;11.57;10.48;;;14.60;99.90;;;;;;2620262;54;20184;-75
2021/09/14 07:27:54;;;;;;;34.88;15.10;;;14.30;99.90;;;;;;2620446;54;20149;-75
2021/09/14 07:30:23;;;;;;;18.55;13.65;;;14.40;99.90;;;;;;2620243;54;20252;-75
2021/09/14 07:32:54;;;;;;;14.77;12.88;;;14.40;99.90;;;;;;2620129;54;20694;-74
2021/09/14 07:35:26;;;;;;;50.95;15.32;;;14.30;99.90;;;;;;2619949;47;20184;-75
2021/09/14 07:37:55;;;;;;;23.98;13.98;;;14.50;99.90;;;;;;2621514;39;20598;-75
2021/09/14 07:40:24;;;;;;;17.60;13.73;;;14.70;99.90;;;;;;2619689;54;20145;-75
2021/09/14 07:42:53;;;;;;;14.32;12.40;;;14.80;99.90;;;;;;2619377;54;20160;-77
2021/09/14 07:45:22;;;;;;;13.48;12.07;;;14.70;99.90;;;;;;2619554;47;20176;-76
2021/09/14 07:47:51;;;;;;;13.88;12.40;;;14.80;99.90;;;;;;2620210;51;20442;-74
2021/09/14 07:50:21;;;;;;;13.93;12.13;;;14.90;99.90;;;;;;2620734;47;20689;-75
2021/09/14 07:52:53;;;;;;;14.73;11.55;;;15.00;99.90;;;;;;2620092;47;20145;-76
2021/09/14 07:55:22;;;;;;;13.85;12.52;;;15.20;99.90;;;;;;2620286;54;20184;-75
2021/09/14 07:57:51;;;;;;;15.82;13.55;;;15.50;99.90;;;;;;2619354;47;20142;-75
2021/09/14 08:00:20;;;;;;;13.90;12.43;;;15.80;99.90;;;;;;2620065;54;20157;-76
2021/09/14 08:02:55;;;;;;;12.13;10.98;;;16.10;99.90;;;;;;2619471;47;20180;-75
2021/09/14 08:05:25;;;;;;;12.30;11.02;;;16.10;99.90;;;;;;2618625;54;20283;-75
2021/09/14 08:07:56;;;;;;;12.15;10.95;;;16.10;99.90;;;;;;2619603;47;20170;-74
2021/09/14 08:10:25;;;;;;;11.18;10.15;;;16.20;99.90;;;;;;2619953;39;20576;-75
2021/09/14 08:12:53;;;;;;;11.77;10.55;;;16.30;99.90;;;;;;2619342;47;20164;-76
2021/09/14 08:15:22;;;;;;;13.10;11.60;;;16.40;99.90;;;;;;2619755;54;20184;-75
2021/09/14 08:17:51;;;;;;;11.63;10.52;;;16.60;99.90;;;;;;2619261;47;20172;-76
2021/09/14 08:20:20;;;;;;;12.10;10.85;;;16.70;99.90;;;;;;2620286;54;20686;-75
2021/09/14 08:22:49;;;;;;;10.63;9.70;;;16.90;99.90;;;;;;2621483;46;20164;-75
2021/09/14 08:25:20;;;;;;;11.07;9.90;;;17.10;99.90;;;;;;2621333;54;20161;-76
2021/09/14 08:27:49;;;;;;;12.93;11.63;;;17.30;99.90;;;;;;2621148;47;20168;-76
2021/09/14 08:30:18;;;;;;;11.95;10.23;;;17.40;99.90;;;;;;2621850;47;20698;-76
2021/09/14 08:32:46;;;;;;;12.13;10.98;;;17.50;99.90;;;;;;2621548;47;20152;-76
2021/09/14 08:35:15;;;;;;;11.82;10.15;;;17.50;99.90;;;;;;2621145;54;20181;-77
2021/09/14 08:37:44;;;;;;;10.77;9.23;;;17.70;99.90;;;;;;2621318;47;20164;-76
2021/09/14 08:40:15;;;;;;;14.90;9.68;;;17.70;99.90;;;;;;2622097;47;20153;-76
2021/09/14 08:42:46;;;;;;;11.52;9.75;;;17.80;99.90;;;;;;2621764;47;20149;-76
2021/09/14 08:45:15;;;;;;;13.65;9.38;;;18.00;99.90;;;;;;2622232;54;20157;-77
2021/09/14 08:47:45;;;;;;;9.82;8.38;;;18.30;99.90;;;;;;2623293;54;20188;-78
2021/09/14 08:50:14;;;;;;;11.30;9.00;;;18.50;99.90;;;;;;2623266;54;20217;-76
2021/09/14 08:52:42;;;;;;;11.25;9.10;;;18.70;99.90;;;;;;2621300;54;20161;-77
2021/09/14 08:55:12;;;;;;;9.02;7.40;;;18.60;99.90;;;;;;2622760;54;20181;-77
2021/09/14 08:57:41;;;;;;;9.63;7.18;;;18.90;99.90;;;;;;2622336;54;20164;-76
2021/09/14 09:00:14;;;;;;;8.90;8.00;;;19.00;99.90;;;;;;2621539;54;20165;-77
2021/09/14 09:02:42;;;;;;;9.45;8.23;;;18.90;99.90;;;;;;2622955;39;20544;-76
2021/09/14 09:05:11;;;;;;;10.57;8.13;;;19.10;99.90;;;;;;2622539;49;20709;-76
2021/09/14 09:07:40;;;;;;;10.25;8.15;;;19.40;99.90;;;;;;2622415;47;20160;-77
2021/09/14 09:10:11;;;;;;;8.35;7.55;;;19.30;99.90;;;;;;2622356;47;20153;-76
2021/09/14 09:12:47;;;;;;;12.13;8.57;;;19.50;99.90;;;;;;2623228;47;20272;-78
2021/09/14 09:15:30;;;;;;;10.20;8.68;;;19.50;99.90;;;;;;2624786;47;20187;-77
2021/09/14 09:18:08;;;;;;;8.70;7.90;;;19.60;99.90;;;;;;2623586;47;20160;-77
2021/09/14 09:20:39;;;;;;;8.85;7.95;;;19.60;99.90;;;;;;2624567;54;20159;-77
2021/09/14 09:23:09;;;;;;;11.27;9.85;;;19.90;99.90;;;;;;2621681;54;20153;-77
2021/09/14 09:25:39;;;;;;;12.50;8.70;;;20.10;99.90;;;;;;2622509;50;20212;-77
2021/09/14 09:28:10;;;;;;;9.63;8.73;;;20.20;99.90;;;;;;2621815;47;20273;-76
2021/09/14 09:30:44;;;;;;;9.68;8.77;;;20.20;99.90;;;;;;2622665;47;20165;-78
2021/09/14 09:33:15;;;;;;;9.80;8.80;;;20.50;99.90;;;;;;2626367;54;20153;-75
2021/09/14 09:35:44;;;;;;;10.15;8.13;;;20.40;99.90;;;;;;2626920;39;20680;-78
2021/09/14 09:38:12;;;;;;;9.45;8.48;;;20.50;99.90;;;;;;2624766;47;20160;-77
2021/09/14 09:40:43;;;;;;;9.98;8.93;;;20.70;99.90;;;;;;2624170;39;20566;-77
2021/09/14 09:43:13;;;;;;;10.45;8.95;;;20.90;99.90;;;;;;2625772;54;20212;-77
2021/09/14 09:45:47;;;;;;;10.10;9.10;;;21.10;99.90;;;;;;2623998;39;20581;-78
2021/09/14 09:48:18;;;;;;;11.07;9.82;;;21.10;99.90;;;;;;2622616;50;20192;-77
2021/09/14 09:50:47;;;;;;;10.85;8.77;;;21.10;99.90;;;;;;2624193;47;20698;-77
2021/09/14 09:53:16;;;;;;;9.27;8.38;;;21.40;99.90;;;;;;2624532;47;20189;-77
2021/09/14 09:55:45;;;;;;;8.77;7.85;;;21.30;99.90;;;;;;2626488;54;20208;-77
2021/09/14 09:58:15;;;;;;;10.55;9.55;;;21.40;99.90;;;;;;2626437;47;20150;-78
2021/09/14 10:00:57;;;;;;;9.75;8.85;;;21.40;99.90;;;;;;2625680;47;20169;-77
2021/09/14 10:03:29;;;;;;;11.23;9.88;;;21.50;99.90;;;;;;2625785;47;20161;-79
2021/09/14 10:06:08;;;;;;;10.57;9.63;;;21.60;99.90;;;;;;2624033;47;20184;-77
2021/09/14 10:08:38;;;;;;;9.88;8.98;;;21.70;99.90;;;;;;2624963;47;20149;-77
2021/09/14 10:11:06;;;;;;;11.73;10.23;;;21.90;99.90;;;;;;2624969;47;20715;-76
2021/09/14 10:13:38;;;;;;;9.55;8.65;;;21.90;99.90;;;;;;2622724;39;20238;-77
2021/09/14 10:16:11;;;;;;;21.95;11.43;;;21.80;99.90;;;;;;2623426;54;20189;-78
2021/09/14 10:18:41;;;;;;;13.45;10.77;;;22.00;99.90;;;;;;2623591;54;20180;-76
2021/09/14 10:21:20;;;;;;;11.20;9.02;;;22.10;99.90;;;;;;2626493;47;20149;-78
2021/09/14 10:23:56;;;;;;;13.02;10.40;;;22.20;99.90;;;;;;2632954;39;20532;-78
2021/09/14 10:26:34;;;;;;;9.82;8.88;;;22.30;99.90;;;;;;2628747;54;20252;-77
2021/09/14 10:29:14;;;;;;;11.73;9.15;;;22.40;99.90;;;;;;2624475;54;20160;-76
2021/09/14 10:31:46;;;;;;;10.80;8.60;;;22.50;99.90;;;;;;2623143;39;20559;-76
2021/09/14 10:34:17;;;;;;;11.50;9.05;;;22.80;99.90;;;;;;2623535;54;20165;-77
2021/09/14 10:37:03;;;;;;;11.80;9.90;;;23.10;99.90;;;;;;2624544;47;20173;-77
2021/09/14 10:39:36;;;;;;;10.93;10.00;;;23.20;99.90;;;;;;2624524;47;20177;-78
2021/09/14 10:42:15;;;;;;;11.00;9.85;;;23.10;99.90;;;;;;2622910;39;20605;-76
2021/09/14 10:44:44;;;;;;;10.02;9.13;;;23.10;99.90;;;;;;2622306;47;20740;-76
2021/09/14 10:47:17;;;;;;;10.25;9.35;;;23.20;99.90;;;;;;2624375;54;20687;-78
2021/09/14 10:49:48;;;;;;;11.93;9.68;;;23.50;99.90;;;;;;2622677;47;20167;-76
2021/09/14 10:52:19;;;;;;;10.43;9.40;;;23.70;99.90;;;;;;2627849;54;20148;-79
2021/09/14 10:54:52;;;;;;;12.27;8.60;;;23.90;99.90;;;;;;2628455;39;20853;-80
2021/09/14 10:57:22;;;;;;;9.20;8.25;;;24.20;99.90;;;;;;2627455;47;20228;-78
2021/09/14 10:59:52;;;;;;;8.73;7.93;;;24.80;99.90;;;;;;2624518;31;20610;-78
2021/09/14 11:02:26;;;;;;;9.32;8.18;;;25.10;99.90;;;;;;2622350;54;20161;-77
2021/09/14 11:07:24;;;;;;;7.13;6.45;;;25.30;99.90;;;;;;2624548;31;20640;-76
2021/09/14 11:09:57;;;;;;;8.23;7.50;;;25.60;99.90;;;;;;2623040;54;20145;-76
2021/09/14 11:12:27;;;;;;;8.27;7.20;;;25.80;99.90;;;;;;2622278;47;20165;-76
2021/09/14 11:14:58;;;;;;;9.10;8.23;;;25.90;99.90;;;;;;2622761;47;20157;-75
2021/09/14 11:17:32;;;;;;;8.93;8.07;;;25.60;99.90;;;;;;2621253;54;20145;-75
2021/09/14 11:20:11;;;;;;;10.18;7.50;;;25.30;99.90;;;;;;2621564;54;20153;-77
2021/09/14 11:22:42;;;;;;;6.85;6.25;;;25.10;99.90;;;;;;2622368;47;20149;-76
2021/09/14 11:25:15;;;;;;;10.35;8.00;;;25.00;99.90;;;;;;2630975;46;20189;-77
2021/09/14 11:27:43;;;;;;;10.43;7.38;;;25.00;99.90;;;;;;2631218;54;20142;-78
2021/09/14 11:30:16;;;;;;;8.20;6.15;;;25.10;99.90;;;;;;2631126;46;20809;-77
2021/09/14 11:32:47;;;;;;;9.85;7.18;;;25.00;99.90;;;;;;2630991;54;20145;-77
2021/09/14 11:35:17;;;;;;;7.53;5.80;;;25.10;99.90;;;;;;2630872;47;20160;-78
2021/09/14 11:37:46;;;;;;;6.40;5.53;;;25.10;99.90;;;;;;2632007;46;20145;-77
2021/09/14 11:40:20;;;;;;;9.48;7.50;;;25.40;99.90;;;;;;2634547;46;20183;-76
2021/09/14 11:42:56;;;;;;;8.57;6.85;;;25.70;99.90;;;;;;2630923;47;20264;-79
2021/09/14 11:45:26;;;;;;;9.15;6.63;;;26.00;99.90;;;;;;2630922;47;20169;-78
2021/09/14 11:47:59;;;;;;;8.43;6.28;;;26.00;99.90;;;;;;2631123;47;20134;-77
2021/09/14 11:50:28;;;;;;;9.57;6.65;;;26.20;99.90;;;;;;2631081;46;20146;-76
2021/09/14 11:53:05;;;;;;;5.45;4.95;;;26.60;99.90;;;;;;2630994;47;20843;-76
2021/09/14 11:55:34;;;;;;;6.43;5.82;;;26.80;99.90;;;;;;2630789;47;20168;-78
2021/09/14 11:58:03;;;;;;;6.57;5.28;;;27.00;99.90;;;;;;2631065;54;20126;-78
2021/09/14 12:00:40;;;;;;;7.40;4.78;;;26.90;99.90;;;;;;2630862;47;20164;-78
2021/09/14 12:03:11;;;;;;;5.78;5.28;;;26.90;99.90;;;;;;2631025;47;20151;-78
2021/09/14 12:05:40;;;;;;;4.88;4.38;;;27.00;99.90;;;;;;2630980;47;20158;-77
2021/09/14 12:08:13;;;;;;;5.57;4.78;;;26.80;99.90;;;;;;2631002;54;20154;-78
2021/09/14 12:10:46;;;;;;;10.75;7.43;;;26.90;99.90;;;;;;2636833;39;20765;-77
2021/09/14 12:13:20;;;;;;;8.95;6.25;;;26.70;99.90;;;;;;2630854;46;20149;-78
2021/09/14 12:15:57;;;;;;;7.90;5.95;;;26.50;99.90;;;;;;2630798;47;20168;-78
2021/09/14 12:18:28;;;;;;;9.23;5.78;;;26.10;99.90;;;;;;2630754;54;20209;-77
2021/09/14 12:20:57;;;;;;;5.13;4.63;;;26.00;99.90;;;;;;2631098;54;20161;-78
2021/09/14 12:23:26;;;;;;;8.43;5.35;;;25.80;99.90;;;;;;2630832;54;20574;-78
2021/09/14 12:25:54;;;;;;;5.72;5.20;;;25.70;99.90;;;;;;2630985;47;20192;-78
2021/09/14 12:28:25;;;;;;;11.23;6.18;;;25.80;99.90;;;;;;2630919;54;20126;-77
2021/09/14 12:30:54;;;;;;;6.72;5.97;;;25.90;99.90;;;;;;2630976;47;20153;-77
2021/09/14 12:33:23;;;;;;;5.07;4.57;;;26.00;99.90;;;;;;2630745;47;20197;-77
2021/09/14 12:35:54;;;;;;;6.07;5.05;;;26.20;99.90;;;;;;2631587;39;20911;-79
2021/09/14 12:38:23;;;;;;;5.25;4.70;;;26.50;99.90;;;;;;2630972;47;20193;-78
2021/09/14 12:40:52;;;;;;;5.00;4.53;;;26.70;99.90;;;;;;2630647;54;20145;-78
2021/09/14 12:43:21;;;;;;;5.70;4.70;;;27.10;99.90;;;;;;2630599;46;20185;-78
2021/09/14 12:45:49;;;;;;;5.60;4.70;;;27.40;99.90;;;;;;2630753;47;20228;-77
2021/09/14 12:48:18;;;;;;;8.43;5.03;;;27.60;99.90;;;;;;2630775;47;20153;-78
2021/09/14 12:50:47;;;;;;;7.97;4.22;;;27.70;99.90;;;;;;2630678;47;20189;-78
2021/09/14 12:53:18;;;;;;;10.13;5.57;;;27.50;99.90;;;;;;2639365;39;20705;-79
2021/09/14 12:55:47;;;;;;;9.88;8.88;;;27.50;99.90;;;;;;2630416;47;20679;-78
2021/09/14 12:58:16;;;;;;;7.07;6.47;;;27.30;99.90;;;;;;2630656;54;20164;-79
2021/09/14 13:00:45;;;;;;;7.25;5.38;;;26.90;99.90;;;;;;2630711;47;20149;-79
2021/09/14 13:03:14;;;;;;;8.98;5.25;;;26.60;99.90;;;;;;2630554;47;20152;-78
2021/09/14 13:05:44;;;;;;;7.18;4.65;;;26.40;99.90;;;;;;2630612;47;20817;-79
2021/09/14 13:08:14;;;;;;;4.55;4.10;;;26.30;99.90;;;;;;2637626;39;20757;-79
2021/09/14 13:10:45;;;;;;;6.15;5.10;;;26.20;99.90;;;;;;2631012;39;20788;-79
2021/09/14 13:16:14;;;;;;;6.85;5.60;;;26.30;99.90;;;;;;2628858;47;20188;-77
2021/09/14 13:18:44;;;;;;;9.05;5.88;;;26.40;99.90;;;;;;2627883;54;20145;-77
2021/09/14 13:21:14;;;;;;;5.60;4.40;;;26.50;99.90;;;;;;2627861;47;20656;-78
2021/09/14 13:23:44;;;;;;;9.75;5.07;;;26.70;99.90;;;;;;2628259;54;20141;-78
2021/09/14 13:26:15;;;;;;;7.18;5.63;;;26.80;99.90;;;;;;2628466;47;20159;-78
2021/09/14 13:28:44;;;;;;;6.18;4.45;;;26.90;99.90;;;;;;2630082;47;20146;-78
2021/09/14 13:31:13;;;;;;;5.57;5.03;;;26.90;99.90;;;;;;2630537;31;20709;-78
2021/09/14 13:33:42;;;;;;;5.55;5.07;;;27.00;99.90;;;;;;2629939;54;20148;-79
2021/09/14 13:36:11;;;;;;;7.97;5.88;;;26.90;99.90;;;;;;2630586;54;20868;-79
2021/09/14 13:38:39;;;;;;;6.15;5.07;;;26.90;99.90;;;;;;2630348;47;20165;-78
2021/09/14 13:41:10;;;;;;;8.98;4.40;;;26.90;99.90;;;;;;2630061;39;20578;-78
2021/09/14 13:43:52;;;;;;;4.80;4.30;;;26.90;99.90;;;;;;2628942;54;20157;-77
2021/09/14 13:46:21;;;;;;;6.03;5.18;;;27.10;99.90;;;;;;2628677;54;20157;-78
2021/09/14 13:48:52;;;;;;;7.15;4.97;;;27.70;99.90;;;;;;2629552;47;20146;-79
2021/09/14 13:51:22;;;;;;;4.80;4.38;;;27.90;99.90;;;;;;2630614;47;20177;-79